TNO7790 SVMI-TFFR
Flight info
| Callsign | TNO7790 |
|---|---|
| Flight time | 1h 38m |
| Altitude | 31000 |
| Route | SOSKA2 OPUTU DCT OPMEB UA550 ITEGO DCT PELMA DCT TULEX TULEX1A |
| Aircraft | MD82/M-SDFGHRWY/S |
Departure
| Time | 2026-04-26 15:33 |
|---|---|
| Airport | Maiquetía Simón Bolívar International Airport (SVMI) |
Arrival
| Time | 2026-04-26 17:11 |
|---|---|
| Airport | Maryse Condé International Airport (TFFR) |
| Time | Latitude | Longitude | Altitude | Speed | Heading |
|---|---|---|---|---|---|
| 2026-04-26 15:00 | 10.59830 | -67.00675 | 232 ft | 0 kts | 178° |
| 2026-04-26 15:17 | 10.59839 | -67.00675 | 233 ft | 4 kts | 172° |
| 2026-04-26 15:17 | 10.59861 | -67.00683 | 232 ft | 4 kts | 135° |
| 2026-04-26 15:18 | 10.59871 | -67.00703 | 233 ft | 4 kts | 94° |
| 2026-04-26 15:18 | 10.59871 | -67.00719 | 233 ft | 0 kts | 88° |
| 2026-04-26 15:21 | 10.59874 | -67.00713 | 233 ft | 0 kts | 47° |
| 2026-04-26 15:21 | 10.59897 | -67.00691 | 234 ft | 7 kts | 56° |
| 2026-04-26 15:22 | 10.59914 | -67.00648 | 231 ft | 0 kts | 84° |
| 2026-04-26 15:23 | 10.59916 | -67.00625 | 231 ft | 8 kts | 86° |
| 2026-04-26 15:23 | 10.59919 | -67.00538 | 230 ft | 15 kts | 89° |
| 2026-04-26 15:24 | 10.59921 | -67.00436 | 231 ft | 13 kts | 89° |
| 2026-04-26 15:24 | 10.59923 | -67.00351 | 226 ft | 12 kts | 89° |
| 2026-04-26 15:24 | 10.59939 | -67.00304 | 226 ft | 4 kts | 38° |
| 2026-04-26 15:24 | 10.59987 | -67.00294 | 226 ft | 11 kts | 2° |
| 2026-04-26 15:25 | 10.60072 | -67.00295 | 225 ft | 13 kts | 2° |
| 2026-04-26 15:25 | 10.60101 | -67.00281 | 227 ft | 6 kts | 52° |
| 2026-04-26 15:25 | 10.60116 | -67.00174 | 223 ft | 17 kts | 89° |
| 2026-04-26 15:25 | 10.60119 | -67.00044 | 221 ft | 19 kts | 88° |
| 2026-04-26 15:26 | 10.60130 | -66.99908 | 218 ft | 16 kts | 82° |
| 2026-04-26 15:26 | 10.60136 | -66.99780 | 221 ft | 22 kts | 90° |
| 2026-04-26 15:26 | 10.60124 | -66.99684 | 212 ft | 5 kts | 134° |
| 2026-04-26 15:26 | 10.60091 | -66.99669 | 218 ft | 5 kts | 165° |
| 2026-04-26 15:27 | 10.60046 | -66.99664 | 222 ft | 8 kts | 177° |
| 2026-04-26 15:27 | 10.60009 | -66.99663 | 218 ft | 0 kts | 178° |
| 2026-04-26 15:29 | 10.59974 | -66.99662 | 219 ft | 10 kts | 178° |
| 2026-04-26 15:29 | 10.59910 | -66.99649 | 222 ft | 5 kts | 130° |
| 2026-04-26 15:29 | 10.59908 | -66.99633 | 218 ft | 0 kts | 82° |
| 2026-04-26 15:32 | 10.59918 | -66.99581 | 218 ft | 31 kts | 77° |
| 2026-04-26 15:32 | 10.60024 | -66.99146 | 206 ft | 98 kts | 76° |
| 2026-04-26 15:33 | 10.60246 | -66.98250 | 166 ft | 158 kts | 76° |
| 2026-04-26 15:33 | 10.60557 | -66.97019 | 332 ft | 192 kts | 75° |
| 2026-04-26 15:33 | 10.60895 | -66.95806 | 1222 ft | 181 kts | 72° |
| 2026-04-26 15:33 | 10.61291 | -66.94653 | 2152 ft | 169 kts | 68° |
| 2026-04-26 15:34 | 10.61794 | -66.93470 | 2062 ft | 208 kts | 65° |
| 2026-04-26 15:34 | 10.62520 | -66.92045 | 2106 ft | 234 kts | 61° |
| 2026-04-26 15:34 | 10.63311 | -66.90750 | 3393 ft | 194 kts | 57° |
| 2026-04-26 15:34 | 10.63945 | -66.89572 | 3920 ft | 204 kts | 78° |
| 2026-04-26 15:35 | 10.64033 | -66.87942 | 3353 ft | 257 kts | 99° |
| 2026-04-26 15:35 | 10.63768 | -66.86201 | 4306 ft | 239 kts | 99° |
| 2026-04-26 15:35 | 10.63643 | -66.85064 | 4691 ft | 246 kts | 96° |
| 2026-04-26 15:35 | 10.63595 | -66.82636 | 5094 ft | 265 kts | 89° |
| 2026-04-26 15:36 | 10.63656 | -66.81368 | 5532 ft | 266 kts | 88° |
| 2026-04-26 15:36 | 10.63797 | -66.79489 | 6161 ft | 268 kts | 86° |
| 2026-04-26 15:36 | 10.63997 | -66.77590 | 6766 ft | 271 kts | 84° |
| 2026-04-26 15:36 | 10.64247 | -66.75706 | 7360 ft | 274 kts | 83° |
| 2026-04-26 15:37 | 10.64544 | -66.73755 | 7935 ft | 278 kts | 82° |
| 2026-04-26 15:37 | 10.64867 | -66.71801 | 8490 ft | 281 kts | 81° |
| 2026-04-26 15:37 | 10.65205 | -66.69861 | 9042 ft | 284 kts | 81° |
| 2026-04-26 15:37 | 10.65561 | -66.67875 | 9597 ft | 287 kts | 80° |
| 2026-04-26 15:38 | 10.65926 | -66.65869 | 10162 ft | 290 kts | 80° |
| 2026-04-26 15:38 | 10.66301 | -66.63826 | 10607 ft | 298 kts | 80° |
| 2026-04-26 15:38 | 10.66689 | -66.61696 | 10810 ft | 315 kts | 80° |
| 2026-04-26 15:38 | 10.67098 | -66.59456 | 10899 ft | 331 kts | 80° |
| 2026-04-26 15:39 | 10.67529 | -66.57087 | 10946 ft | 347 kts | 80° |
| 2026-04-26 15:39 | 10.67968 | -66.54659 | 10960 ft | 349 kts | 80° |
| 2026-04-26 15:39 | 10.68405 | -66.52231 | 10968 ft | 350 kts | 80° |
| 2026-04-26 15:39 | 10.68693 | -66.50622 | 10970 ft | 350 kts | 79° |
| 2026-04-26 15:40 | 10.69783 | -66.47491 | 11025 ft | 356 kts | 65° |
| 2026-04-26 15:40 | 10.70874 | -66.45238 | 11074 ft | 354 kts | 64° |
| 2026-04-26 15:40 | 10.71971 | -66.43027 | 11484 ft | 347 kts | 64° |
| 2026-04-26 15:40 | 10.73059 | -66.40830 | 12023 ft | 348 kts | 64° |
| 2026-04-26 15:41 | 10.74142 | -66.38627 | 12576 ft | 349 kts | 64° |
| 2026-04-26 15:41 | 10.75224 | -66.36407 | 13127 ft | 350 kts | 65° |
| 2026-04-26 15:41 | 10.76296 | -66.34184 | 13678 ft | 351 kts | 65° |
| 2026-04-26 15:41 | 10.77361 | -66.31950 | 14228 ft | 351 kts | 65° |
| 2026-04-26 15:42 | 10.78419 | -66.29715 | 14778 ft | 351 kts | 65° |
| 2026-04-26 15:42 | 10.79471 | -66.27486 | 15335 ft | 350 kts | 65° |
| 2026-04-26 15:42 | 10.80522 | -66.25253 | 15732 ft | 354 kts | 65° |
| 2026-04-26 15:42 | 10.81615 | -66.22961 | 15870 ft | 367 kts | 62° |
| 2026-04-26 15:43 | 10.83205 | -66.20875 | 15956 ft | 381 kts | 42° |
| 2026-04-26 15:43 | 10.85325 | -66.19214 | 16290 ft | 387 kts | 36° |
| 2026-04-26 15:43 | 10.89771 | -66.16054 | 17175 ft | 392 kts | 36° |
| 2026-04-26 15:44 | 10.92011 | -66.14455 | 17590 ft | 395 kts | 36° |
| 2026-04-26 15:44 | 10.96515 | -66.11185 | 18426 ft | 400 kts | 37° |
| 2026-04-26 15:44 | 10.98769 | -66.09513 | 18806 ft | 403 kts | 37° |
| 2026-04-26 15:45 | 11.03314 | -66.06096 | 19555 ft | 409 kts | 37° |
| 2026-04-26 15:45 | 11.05575 | -66.04391 | 19951 ft | 411 kts | 37° |
| 2026-04-26 15:46 | 11.10236 | -66.00880 | 20653 ft | 417 kts | 37° |
| 2026-04-26 15:46 | 11.12544 | -65.99144 | 21011 ft | 420 kts | 37° |
| 2026-04-26 15:46 | 11.14900 | -65.97375 | 21385 ft | 422 kts | 37° |
| 2026-04-26 15:46 | 11.16503 | -65.96173 | 21637 ft | 423 kts | 37° |
| 2026-04-26 15:47 | 11.19655 | -65.93807 | 22099 ft | 426 kts | 37° |
| 2026-04-26 15:47 | 11.24472 | -65.90195 | 22713 ft | 432 kts | 37° |
| 2026-04-26 15:47 | 11.26894 | -65.88375 | 23053 ft | 434 kts | 37° |
| 2026-04-26 15:48 | 11.29332 | -65.86545 | 23367 ft | 436 kts | 37° |
| 2026-04-26 15:48 | 11.31787 | -65.84702 | 23667 ft | 439 kts | 37° |
| 2026-04-26 15:48 | 11.34250 | -65.82853 | 23970 ft | 441 kts | 37° |
| 2026-04-26 15:48 | 11.36721 | -65.80997 | 24270 ft | 443 kts | 37° |
| 2026-04-26 15:49 | 11.39208 | -65.79129 | 24536 ft | 446 kts | 37° |
| 2026-04-26 15:49 | 11.41713 | -65.77248 | 24803 ft | 449 kts | 37° |
| 2026-04-26 15:49 | 11.44241 | -65.75366 | 25097 ft | 451 kts | 36° |
| 2026-04-26 15:49 | 11.46840 | -65.73554 | 25381 ft | 453 kts | 34° |
| 2026-04-26 15:50 | 11.49487 | -65.71794 | 25614 ft | 456 kts | 33° |
| 2026-04-26 15:50 | 11.52161 | -65.70043 | 25876 ft | 458 kts | 33° |
| 2026-04-26 15:50 | 11.54845 | -65.68282 | 26155 ft | 460 kts | 33° |
| 2026-04-26 15:50 | 11.57536 | -65.66505 | 26384 ft | 462 kts | 33° |
| 2026-04-26 15:51 | 11.60228 | -65.64712 | 26636 ft | 464 kts | 33° |
| 2026-04-26 15:51 | 11.62928 | -65.62902 | 26889 ft | 466 kts | 33° |
| 2026-04-26 15:51 | 11.65644 | -65.61073 | 27096 ft | 469 kts | 33° |
| 2026-04-26 15:51 | 11.68371 | -65.59234 | 27410 ft | 470 kts | 33° |
| 2026-04-26 15:52 | 11.71109 | -65.57389 | 27636 ft | 472 kts | 33° |
| 2026-04-26 15:52 | 11.73859 | -65.55539 | 27850 ft | 475 kts | 33° |
| 2026-04-26 15:52 | 11.76618 | -65.53685 | 28120 ft | 476 kts | 33° |
| 2026-04-26 15:52 | 11.78461 | -65.52447 | 28275 ft | 478 kts | 33° |
| 2026-04-26 15:53 | 11.82185 | -65.49944 | 28587 ft | 480 kts | 33° |
| 2026-04-26 15:53 | 11.84971 | -65.48070 | 28894 ft | 479 kts | 33° |
| 2026-04-26 15:53 | 11.87751 | -65.46198 | 29261 ft | 478 kts | 33° |
| 2026-04-26 15:53 | 11.90524 | -65.44333 | 29606 ft | 476 kts | 33° |
| 2026-04-26 15:54 | 11.93292 | -65.42471 | 29905 ft | 476 kts | 33° |
| 2026-04-26 15:54 | 11.96061 | -65.40608 | 30185 ft | 477 kts | 33° |
| 2026-04-26 15:54 | 11.98796 | -65.38769 | 30471 ft | 477 kts | 33° |
| 2026-04-26 15:54 | 12.01565 | -65.36908 | 30735 ft | 477 kts | 33° |
| 2026-04-26 15:55 | 12.04337 | -65.35044 | 30863 ft | 479 kts | 33° |
| 2026-04-26 15:55 | 12.09899 | -65.31300 | 30956 ft | 477 kts | 33° |
| 2026-04-26 15:56 | 12.15419 | -65.27580 | 30977 ft | 474 kts | 33° |
| 2026-04-26 15:56 | 12.20912 | -65.23876 | 30989 ft | 473 kts | 33° |
| 2026-04-26 15:57 | 12.26418 | -65.20162 | 30992 ft | 474 kts | 33° |
| 2026-04-26 15:57 | 12.31932 | -65.16442 | 30992 ft | 474 kts | 33° |
| 2026-04-26 15:58 | 12.37443 | -65.12722 | 30992 ft | 475 kts | 33° |
| 2026-04-26 15:58 | 12.42961 | -65.08997 | 30992 ft | 475 kts | 33° |
| 2026-04-26 15:59 | 12.48426 | -65.05307 | 30992 ft | 475 kts | 33° |
| 2026-04-26 15:59 | 12.53907 | -65.01600 | 30992 ft | 476 kts | 33° |
| 2026-04-26 16:00 | 12.59430 | -64.97863 | 30992 ft | 475 kts | 33° |
| 2026-04-26 16:00 | 12.64931 | -64.94140 | 30992 ft | 473 kts | 33° |
| 2026-04-26 16:01 | 12.70425 | -64.90424 | 30992 ft | 474 kts | 33° |
| 2026-04-26 16:01 | 12.75930 | -64.86697 | 30992 ft | 475 kts | 33° |
| 2026-04-26 16:02 | 12.81457 | -64.82955 | 30992 ft | 477 kts | 33° |
| 2026-04-26 16:02 | 12.86992 | -64.79202 | 30992 ft | 477 kts | 33° |
| 2026-04-26 16:03 | 12.92504 | -64.75465 | 30999 ft | 475 kts | 33° |
| 2026-04-26 16:03 | 12.98014 | -64.71726 | 31001 ft | 474 kts | 33° |
| 2026-04-26 16:04 | 13.03529 | -64.67984 | 31002 ft | 475 kts | 33° |
| 2026-04-26 16:04 | 13.08979 | -64.64159 | 31007 ft | 475 kts | 39° |
| 2026-04-26 16:05 | 13.13822 | -64.59548 | 31009 ft | 475 kts | 44° |
| 2026-04-26 16:05 | 13.18511 | -64.54831 | 31010 ft | 475 kts | 44° |
| 2026-04-26 16:06 | 13.23324 | -64.50101 | 31011 ft | 476 kts | 43° |
| 2026-04-26 16:06 | 13.28096 | -64.45491 | 31011 ft | 475 kts | 43° |
| 2026-04-26 16:07 | 13.32927 | -64.40831 | 31011 ft | 478 kts | 43° |
| 2026-04-26 16:07 | 13.37771 | -64.36147 | 31010 ft | 478 kts | 43° |
| 2026-04-26 16:08 | 13.42660 | -64.31524 | 31010 ft | 477 kts | 42° |
| 2026-04-26 16:08 | 13.47587 | -64.26969 | 31010 ft | 476 kts | 42° |
| 2026-04-26 16:09 | 13.52499 | -64.22402 | 31011 ft | 476 kts | 42° |
| 2026-04-26 16:09 | 13.57419 | -64.17814 | 31011 ft | 478 kts | 42° |
| 2026-04-26 16:10 | 13.62346 | -64.13203 | 31011 ft | 477 kts | 42° |
| 2026-04-26 16:10 | 13.67199 | -64.08555 | 31012 ft | 477 kts | 43° |
| 2026-04-26 16:11 | 13.72036 | -64.03858 | 31004 ft | 478 kts | 43° |
| 2026-04-26 16:11 | 13.76888 | -63.99155 | 30994 ft | 480 kts | 43° |
| 2026-04-26 16:12 | 13.81743 | -63.94461 | 30997 ft | 478 kts | 43° |
| 2026-04-26 16:12 | 13.89010 | -63.87446 | 31001 ft | 477 kts | 43° |
| 2026-04-26 16:13 | 13.93851 | -63.82771 | 31004 ft | 478 kts | 43° |
| 2026-04-26 16:13 | 13.98691 | -63.78075 | 31009 ft | 478 kts | 43° |
| 2026-04-26 16:14 | 14.03542 | -63.73381 | 31008 ft | 479 kts | 43° |
| 2026-04-26 16:15 | 14.10833 | -63.66314 | 31010 ft | 479 kts | 43° |
| 2026-04-26 16:15 | 14.15674 | -63.61619 | 31010 ft | 477 kts | 43° |
| 2026-04-26 16:16 | 14.22912 | -63.54577 | 31012 ft | 478 kts | 43° |
| 2026-04-26 16:16 | 14.27722 | -63.49899 | 31010 ft | 479 kts | 43° |
| 2026-04-26 16:17 | 14.32572 | -63.45186 | 31010 ft | 479 kts | 43° |
| 2026-04-26 16:17 | 14.37430 | -63.40461 | 31011 ft | 480 kts | 43° |
| 2026-04-26 16:18 | 14.44709 | -63.33375 | 31010 ft | 480 kts | 43° |
| 2026-04-26 16:19 | 14.51982 | -63.26284 | 31010 ft | 478 kts | 43° |
| 2026-04-26 16:20 | 14.59231 | -63.19206 | 31011 ft | 479 kts | 43° |
| 2026-04-26 16:20 | 14.66517 | -63.12096 | 31011 ft | 481 kts | 43° |
| 2026-04-26 16:21 | 14.71378 | -63.07349 | 31010 ft | 480 kts | 43° |
| 2026-04-26 16:21 | 14.76223 | -63.02615 | 31010 ft | 479 kts | 43° |
| 2026-04-26 16:22 | 14.80234 | -62.98688 | 31011 ft | 478 kts | 43° |
| 2026-04-26 16:22 | 14.85051 | -62.93966 | 31011 ft | 479 kts | 43° |
| 2026-04-26 16:23 | 14.89907 | -62.89207 | 31011 ft | 481 kts | 43° |
| 2026-04-26 16:23 | 14.94713 | -62.84499 | 31010 ft | 482 kts | 43° |
| 2026-04-26 16:24 | 14.99574 | -62.79734 | 31010 ft | 480 kts | 43° |
| 2026-04-26 16:24 | 15.04413 | -62.74988 | 31010 ft | 480 kts | 43° |
| 2026-04-26 16:25 | 15.09256 | -62.70229 | 31011 ft | 481 kts | 43° |
| 2026-04-26 16:25 | 15.14075 | -62.65479 | 31011 ft | 481 kts | 43° |
| 2026-04-26 16:26 | 15.18927 | -62.60708 | 31011 ft | 482 kts | 43° |
| 2026-04-26 16:26 | 15.23794 | -62.55928 | 31010 ft | 482 kts | 43° |
| 2026-04-26 16:27 | 15.28669 | -62.51140 | 31010 ft | 483 kts | 43° |
| 2026-04-26 16:27 | 15.33715 | -62.46556 | 31018 ft | 481 kts | 31° |
| 2026-04-26 16:28 | 15.39575 | -62.43181 | 30539 ft | 487 kts | 25° |
| 2026-04-26 16:28 | 15.42602 | -62.41564 | 29897 ft | 489 kts | 25° |
| 2026-04-26 16:28 | 15.45614 | -62.39941 | 29161 ft | 484 kts | 26° |
| 2026-04-26 16:29 | 15.48563 | -62.38324 | 28367 ft | 476 kts | 26° |
| 2026-04-26 16:29 | 15.51460 | -62.36706 | 27533 ft | 469 kts | 27° |
| 2026-04-26 16:29 | 15.54325 | -62.35088 | 26688 ft | 464 kts | 27° |
| 2026-04-26 16:29 | 15.57136 | -62.33487 | 25874 ft | 458 kts | 28° |
| 2026-04-26 16:30 | 15.59913 | -62.31902 | 25073 ft | 452 kts | 28° |
| 2026-04-26 16:30 | 15.62652 | -62.30343 | 24281 ft | 446 kts | 28° |
| 2026-04-26 16:30 | 15.65358 | -62.28804 | 23508 ft | 441 kts | 28° |
| 2026-04-26 16:30 | 15.68032 | -62.27283 | 22737 ft | 436 kts | 28° |
| 2026-04-26 16:31 | 15.70666 | -62.25784 | 21995 ft | 430 kts | 28° |
| 2026-04-26 16:31 | 15.73267 | -62.24304 | 21249 ft | 424 kts | 28° |
| 2026-04-26 16:31 | 15.75833 | -62.22846 | 20525 ft | 417 kts | 28° |
| 2026-04-26 16:31 | 15.78329 | -62.21429 | 19808 ft | 411 kts | 28° |
| 2026-04-26 16:32 | 15.80827 | -62.20012 | 19105 ft | 404 kts | 27° |
| 2026-04-26 16:32 | 15.82483 | -62.19071 | 18632 ft | 400 kts | 28° |
| 2026-04-26 16:32 | 15.85678 | -62.17256 | 17736 ft | 390 kts | 27° |
| 2026-04-26 16:32 | 15.88032 | -62.15919 | 17087 ft | 383 kts | 27° |
| 2026-04-26 16:33 | 15.90348 | -62.14607 | 16439 ft | 375 kts | 27° |
| 2026-04-26 16:33 | 15.92617 | -62.13322 | 15812 ft | 368 kts | 28° |
| 2026-04-26 16:33 | 15.94850 | -62.12056 | 15187 ft | 364 kts | 28° |
| 2026-04-26 16:33 | 15.97072 | -62.10796 | 14569 ft | 364 kts | 28° |
| 2026-04-26 16:34 | 15.99287 | -62.09539 | 13957 ft | 362 kts | 28° |
| 2026-04-26 16:34 | 16.01490 | -62.08288 | 13341 ft | 361 kts | 28° |
| 2026-04-26 16:34 | 16.03685 | -62.07039 | 12714 ft | 357 kts | 28° |
| 2026-04-26 16:34 | 16.05834 | -62.05817 | 12110 ft | 348 kts | 28° |
| 2026-04-26 16:35 | 16.07941 | -62.04617 | 11509 ft | 342 kts | 29° |
| 2026-04-26 16:35 | 16.10028 | -62.03429 | 10909 ft | 341 kts | 29° |
| 2026-04-26 16:35 | 16.12077 | -62.02264 | 10444 ft | 327 kts | 29° |
| 2026-04-26 16:35 | 16.14009 | -62.01166 | 10232 ft | 305 kts | 30° |
| 2026-04-26 16:36 | 16.15806 | -62.00141 | 10133 ft | 285 kts | 30° |
| 2026-04-26 16:36 | 16.17544 | -61.99149 | 10099 ft | 287 kts | 30° |
| 2026-04-26 16:36 | 16.19296 | -61.98147 | 10076 ft | 288 kts | 30° |
| 2026-04-26 16:36 | 16.21060 | -61.97139 | 9882 ft | 290 kts | 30° |
| 2026-04-26 16:37 | 16.22828 | -61.96130 | 9658 ft | 289 kts | 30° |
| 2026-04-26 16:37 | 16.24587 | -61.95127 | 9430 ft | 288 kts | 30° |
| 2026-04-26 16:37 | 16.26343 | -61.94126 | 9204 ft | 286 kts | 31° |
| 2026-04-26 16:37 | 16.27879 | -61.92865 | 8979 ft | 281 kts | 55° |
| 2026-04-26 16:38 | 16.28685 | -61.91049 | 8772 ft | 276 kts | 79° |
| 2026-04-26 16:38 | 16.29052 | -61.89079 | 8538 ft | 276 kts | 82° |
| 2026-04-26 16:38 | 16.29363 | -61.87140 | 8307 ft | 274 kts | 83° |
| 2026-04-26 16:38 | 16.29664 | -61.85186 | 8079 ft | 273 kts | 83° |
| 2026-04-26 16:39 | 16.29962 | -61.83218 | 7855 ft | 270 kts | 83° |
| 2026-04-26 16:39 | 16.30259 | -61.81299 | 7646 ft | 265 kts | 83° |
| 2026-04-26 16:39 | 16.30563 | -61.79425 | 7411 ft | 262 kts | 82° |
| 2026-04-26 16:39 | 16.30857 | -61.77577 | 7180 ft | 262 kts | 87° |
| 2026-04-26 16:40 | 16.30727 | -61.75708 | 6959 ft | 259 kts | 101° |
| 2026-04-26 16:40 | 16.30404 | -61.73924 | 6724 ft | 239 kts | 103° |
| 2026-04-26 16:40 | 16.30094 | -61.72306 | 6486 ft | 219 kts | 104° |
| 2026-04-26 16:40 | 16.29782 | -61.70750 | 6271 ft | 222 kts | 104° |
| 2026-04-26 16:41 | 16.29469 | -61.69179 | 6045 ft | 220 kts | 103° |
| 2026-04-26 16:41 | 16.29187 | -61.67610 | 5824 ft | 220 kts | 103° |
| 2026-04-26 16:41 | 16.28898 | -61.66049 | 5603 ft | 220 kts | 103° |
| 2026-04-26 16:41 | 16.28610 | -61.64476 | 5133 ft | 220 kts | 103° |
| 2026-04-26 16:42 | 16.28327 | -61.62924 | 4629 ft | 217 kts | 103° |
| 2026-04-26 16:42 | 16.28045 | -61.61402 | 4135 ft | 212 kts | 103° |
| 2026-04-26 16:42 | 16.27771 | -61.59911 | 3843 ft | 207 kts | 103° |
| 2026-04-26 16:42 | 16.27502 | -61.58446 | 3725 ft | 205 kts | 103° |
| 2026-04-26 16:43 | 16.27237 | -61.57004 | 3660 ft | 195 kts | 103° |
| 2026-04-26 16:43 | 16.27003 | -61.55735 | 3619 ft | 161 kts | 104° |
| 2026-04-26 16:43 | 16.26811 | -61.54688 | 3605 ft | 140 kts | 104° |
| 2026-04-26 16:43 | 16.26617 | -61.53688 | 3608 ft | 143 kts | 104° |
| 2026-04-26 16:44 | 16.26417 | -61.52678 | 3607 ft | 143 kts | 105° |
| 2026-04-26 16:44 | 16.26215 | -61.51653 | 3605 ft | 145 kts | 104° |
| 2026-04-26 16:44 | 16.26015 | -61.50618 | 3603 ft | 146 kts | 105° |
| 2026-04-26 16:44 | 16.25816 | -61.49602 | 3602 ft | 146 kts | 105° |
| 2026-04-26 16:45 | 16.25619 | -61.48568 | 3598 ft | 145 kts | 104° |
| 2026-04-26 16:45 | 16.25425 | -61.47534 | 3598 ft | 145 kts | 104° |
| 2026-04-26 16:45 | 16.25229 | -61.46502 | 3598 ft | 145 kts | 104° |
| 2026-04-26 16:45 | 16.25042 | -61.45474 | 3600 ft | 145 kts | 104° |
| 2026-04-26 16:46 | 16.24855 | -61.44438 | 3600 ft | 146 kts | 104° |
| 2026-04-26 16:46 | 16.24660 | -61.43397 | 3603 ft | 147 kts | 104° |
| 2026-04-26 16:46 | 16.24464 | -61.42360 | 3606 ft | 147 kts | 104° |
| 2026-04-26 16:46 | 16.24270 | -61.41320 | 3601 ft | 147 kts | 104° |
| 2026-04-26 16:47 | 16.24080 | -61.40282 | 3600 ft | 146 kts | 104° |
| 2026-04-26 16:47 | 16.23899 | -61.39241 | 3599 ft | 147 kts | 98° |
| 2026-04-26 16:47 | 16.24183 | -61.38213 | 3599 ft | 157 kts | 57° |
| 2026-04-26 16:47 | 16.25117 | -61.37584 | 3606 ft | 168 kts | 18° |
| 2026-04-26 16:48 | 16.26306 | -61.37607 | 3613 ft | 175 kts | 352° |
| 2026-04-26 16:48 | 16.27497 | -61.37869 | 3601 ft | 175 kts | 348° |
| 2026-04-26 16:48 | 16.28646 | -61.38315 | 3598 ft | 177 kts | 338° |
| 2026-04-26 16:48 | 16.29763 | -61.38847 | 3601 ft | 177 kts | 337° |
| 2026-04-26 16:49 | 16.30871 | -61.39400 | 3602 ft | 177 kts | 336° |
| 2026-04-26 16:49 | 16.31977 | -61.39952 | 3595 ft | 175 kts | 337° |
| 2026-04-26 16:49 | 16.33100 | -61.40456 | 3601 ft | 176 kts | 339° |
| 2026-04-26 16:49 | 16.34230 | -61.40943 | 3600 ft | 175 kts | 342° |
| 2026-04-26 16:50 | 16.35390 | -61.41340 | 3601 ft | 174 kts | 347° |
| 2026-04-26 16:50 | 16.36564 | -61.41632 | 3599 ft | 173 kts | 352° |
| 2026-04-26 16:50 | 16.37748 | -61.41846 | 3598 ft | 173 kts | 355° |
| 2026-04-26 16:50 | 16.38957 | -61.42011 | 3582 ft | 175 kts | 357° |
| 2026-04-26 16:51 | 16.40160 | -61.42141 | 3587 ft | 173 kts | 359° |
| 2026-04-26 16:51 | 16.41358 | -61.42251 | 3603 ft | 172 kts | 359° |
| 2026-04-26 16:51 | 16.42552 | -61.42343 | 3605 ft | 173 kts | 0° |
| 2026-04-26 16:51 | 16.43739 | -61.42534 | 3576 ft | 176 kts | 336° |
| 2026-04-26 16:52 | 16.44567 | -61.43408 | 3574 ft | 175 kts | 287° |
| 2026-04-26 16:52 | 16.44775 | -61.44228 | 3670 ft | 173 kts | 277° |
| 2026-04-26 16:52 | 16.45077 | -61.45897 | 3659 ft | 180 kts | 276° |
| 2026-04-26 16:52 | 16.45290 | -61.47198 | 3634 ft | 185 kts | 276° |
| 2026-04-26 16:53 | 16.45484 | -61.48522 | 3608 ft | 185 kts | 275° |
| 2026-04-26 16:53 | 16.45668 | -61.49848 | 3601 ft | 185 kts | 275° |
| 2026-04-26 16:53 | 16.45860 | -61.51177 | 3600 ft | 187 kts | 275° |
| 2026-04-26 16:53 | 16.46067 | -61.52517 | 3602 ft | 188 kts | 276° |
| 2026-04-26 16:54 | 16.46281 | -61.53856 | 3597 ft | 187 kts | 276° |
| 2026-04-26 16:54 | 16.46499 | -61.55191 | 3599 ft | 187 kts | 277° |
| 2026-04-26 16:54 | 16.46726 | -61.56527 | 3600 ft | 188 kts | 277° |
| 2026-04-26 16:54 | 16.46961 | -61.57866 | 3601 ft | 188 kts | 277° |
| 2026-04-26 16:55 | 16.47196 | -61.59205 | 3599 ft | 188 kts | 277° |
| 2026-04-26 16:55 | 16.47306 | -61.60542 | 3590 ft | 182 kts | 254° |
| 2026-04-26 16:55 | 16.46887 | -61.61773 | 3615 ft | 182 kts | 242° |
| 2026-04-26 16:55 | 16.46393 | -61.62981 | 3604 ft | 180 kts | 241° |
| 2026-04-26 16:56 | 16.45387 | -61.65356 | 3602 ft | 180 kts | 240° |
| 2026-04-26 16:56 | 16.44867 | -61.66555 | 3603 ft | 179 kts | 240° |
| 2026-04-26 16:56 | 16.44357 | -61.67725 | 3603 ft | 181 kts | 240° |
| 2026-04-26 16:57 | 16.43842 | -61.68926 | 3606 ft | 181 kts | 240° |
| 2026-04-26 16:57 | 16.43337 | -61.70122 | 3604 ft | 180 kts | 240° |
| 2026-04-26 16:57 | 16.42346 | -61.72505 | 3601 ft | 179 kts | 241° |
| 2026-04-26 16:58 | 16.41857 | -61.73695 | 3599 ft | 179 kts | 241° |
| 2026-04-26 16:58 | 16.41525 | -61.74498 | 3599 ft | 179 kts | 241° |
| 2026-04-26 16:58 | 16.40396 | -61.77255 | 3599 ft | 178 kts | 241° |
| 2026-04-26 16:59 | 16.39905 | -61.78449 | 3605 ft | 180 kts | 241° |
| 2026-04-26 16:59 | 16.38928 | -61.80833 | 3600 ft | 178 kts | 241° |
| 2026-04-26 17:00 | 16.37942 | -61.83222 | 3599 ft | 179 kts | 241° |
| 2026-04-26 17:00 | 16.36955 | -61.85604 | 3600 ft | 179 kts | 241° |
| 2026-04-26 17:00 | 16.36465 | -61.86792 | 3600 ft | 178 kts | 241° |
| 2026-04-26 17:01 | 16.35973 | -61.87986 | 3600 ft | 179 kts | 241° |
| 2026-04-26 17:01 | 16.35480 | -61.89169 | 3597 ft | 178 kts | 241° |
| 2026-04-26 17:01 | 16.34988 | -61.90356 | 3599 ft | 180 kts | 241° |
| 2026-04-26 17:01 | 16.34482 | -61.91544 | 3598 ft | 177 kts | 235° |
| 2026-04-26 17:02 | 16.33610 | -61.92325 | 3598 ft | 163 kts | 188° |
| 2026-04-26 17:02 | 16.32552 | -61.92146 | 3615 ft | 155 kts | 143° |
| 2026-04-26 17:02 | 16.31976 | -61.91235 | 3612 ft | 157 kts | 101° |
| 2026-04-26 17:02 | 16.32074 | -61.90084 | 3609 ft | 162 kts | 84° |
| 2026-04-26 17:03 | 16.32242 | -61.88923 | 3596 ft | 161 kts | 88° |
| 2026-04-26 17:03 | 16.32325 | -61.87778 | 3597 ft | 161 kts | 91° |
| 2026-04-26 17:03 | 16.32293 | -61.86616 | 3587 ft | 157 kts | 100° |
| 2026-04-26 17:03 | 16.32187 | -61.85501 | 3598 ft | 157 kts | 98° |
| 2026-04-26 17:04 | 16.32094 | -61.84364 | 3599 ft | 158 kts | 98° |
| 2026-04-26 17:04 | 16.32004 | -61.83221 | 3602 ft | 159 kts | 98° |
| 2026-04-26 17:04 | 16.31879 | -61.82075 | 3604 ft | 158 kts | 101° |
| 2026-04-26 17:04 | 16.31711 | -61.80951 | 3601 ft | 158 kts | 102° |
| 2026-04-26 17:05 | 16.31520 | -61.79823 | 3606 ft | 158 kts | 103° |
| 2026-04-26 17:05 | 16.31311 | -61.78700 | 3611 ft | 158 kts | 104° |
| 2026-04-26 17:05 | 16.31093 | -61.77570 | 3613 ft | 160 kts | 105° |
| 2026-04-26 17:05 | 16.30868 | -61.76456 | 3606 ft | 152 kts | 105° |
| 2026-04-26 17:06 | 16.30656 | -61.75389 | 3608 ft | 150 kts | 105° |
| 2026-04-26 17:06 | 16.30452 | -61.74334 | 3586 ft | 148 kts | 104° |
| 2026-04-26 17:06 | 16.30256 | -61.73295 | 3594 ft | 145 kts | 104° |
| 2026-04-26 17:06 | 16.30061 | -61.72275 | 3601 ft | 144 kts | 104° |
| 2026-04-26 17:07 | 16.29858 | -61.71228 | 3437 ft | 151 kts | 104° |
| 2026-04-26 17:07 | 16.29656 | -61.70170 | 3192 ft | 147 kts | 104° |
| 2026-04-26 17:07 | 16.29470 | -61.69136 | 2977 ft | 144 kts | 103° |
| 2026-04-26 17:07 | 16.29285 | -61.68113 | 2773 ft | 143 kts | 104° |
| 2026-04-26 17:08 | 16.29099 | -61.67099 | 2558 ft | 143 kts | 103° |
| 2026-04-26 17:08 | 16.28905 | -61.66072 | 2359 ft | 145 kts | 103° |
| 2026-04-26 17:08 | 16.28714 | -61.65036 | 2162 ft | 147 kts | 103° |
| 2026-04-26 17:08 | 16.28520 | -61.63990 | 1960 ft | 147 kts | 103° |
| 2026-04-26 17:09 | 16.28326 | -61.62936 | 1765 ft | 149 kts | 102° |
| 2026-04-26 17:09 | 16.28264 | -61.62594 | 1695 ft | 149 kts | 102° |
| 2026-04-26 17:09 | 16.27937 | -61.60807 | 1339 ft | 150 kts | 102° |
| 2026-04-26 17:09 | 16.27740 | -61.59753 | 1117 ft | 151 kts | 102° |
| 2026-04-26 17:10 | 16.27541 | -61.58678 | 920 ft | 152 kts | 101° |
| 2026-04-26 17:10 | 16.27347 | -61.57602 | 697 ft | 150 kts | 100° |
| 2026-04-26 17:10 | 16.27153 | -61.56534 | 479 ft | 150 kts | 102° |
| 2026-04-26 17:10 | 16.26957 | -61.55464 | 272 ft | 150 kts | 101° |
| 2026-04-26 17:11 | 16.26758 | -61.54400 | 54 ft | 150 kts | 101° |
| 2026-04-26 17:11 | 16.26577 | -61.53426 | 29 ft | 110 kts | 101° |
| 2026-04-26 17:11 | 16.26487 | -61.52940 | 30 ft | 38 kts | 101° |
| 2026-04-26 17:11 | 16.26429 | -61.52633 | 32 ft | 41 kts | 101° |
| 2026-04-26 17:12 | 16.26391 | -61.52256 | 39 ft | 8 kts | 47° |
| 2026-04-26 17:12 | 16.26460 | -61.52224 | 39 ft | 0 kts | 13° |
| 2026-04-26 17:13 | 16.26483 | -61.52218 | 39 ft | 0 kts | 13° |
| 2026-04-26 17:13 | 16.26491 | -61.52217 | 39 ft | 5 kts | 11° |
| 2026-04-26 17:13 | 16.26521 | -61.52211 | 39 ft | 2 kts | 11° |
| 2026-04-26 17:14 | 16.26555 | -61.52204 | 39 ft | 9 kts | 10° |
| 2026-04-26 17:14 | 16.26718 | -61.52206 | 39 ft | 7 kts | 311° |
| 2026-04-26 17:14 | 16.26732 | -61.52242 | 38 ft | 8 kts | 284° |
| 2026-04-26 17:15 | 16.26766 | -61.52425 | 37 ft | 16 kts | 280° |
| 2026-04-26 17:15 | 16.26787 | -61.52543 | 35 ft | 17 kts | 281° |
| 2026-04-26 17:15 | 16.26817 | -61.52637 | 35 ft | 6 kts | 318° |
| 2026-04-26 17:16 | 16.26830 | -61.52642 | 34 ft | 0 kts | 359° |
| 2026-04-26 17:16 | 16.26842 | -61.52637 | 34 ft | 4 kts | 27° |
| 2026-04-26 17:16 | 16.26877 | -61.52620 | 35 ft | 5 kts | 13° |
| 2026-04-26 17:16 | 16.26892 | -61.52618 | 35 ft | 1 kts | 359° |
| 2026-04-26 17:17 | 16.26899 | -61.52619 | 35 ft | 1 kts | 356° |
| 2026-04-26 17:17 | 16.26905 | -61.52619 | 35 ft | 1 kts | 354° |
| 2026-04-26 17:17 | 16.26911 | -61.52620 | 35 ft | 0 kts | 353° |
| 2026-04-26 17:20 | 16.26897 | -61.52613 | 35 ft | 0 kts | 343° |